Portada
METAR-TAF:

METAR-TAF

Aeroports :

Pau, França

latitud: 43-23N, longitud: 000-25W, altitud: 188 m

Observació

L'informe es va fer fa 43 minuts, a les 00:00 UTC
Vent 6 kt del Oest/Sud-Oest
Temperatura 19°C
Humitat 88%
Pressió 1017 hPa
Visibilitat 10 km o més
Cel ennuvolat a una alçada de 5600 ft
Cel ennuvolat a una alçada de 13000 ft

METAR: LFBP 170000Z AUTO 24006KT 9999 BKN056 BKN130 19/17 Q1017 NOSIG

Hora: 02:43 (00:43 UTC)

Pronòstic

L'informe es va fer fa 1 hora i 43 minuts, a les 23:00 UTC
Pronòstic vàlid del 17 a les 00 UTC al 17 a les 24 UTC
Vent 6 kt del Oest/Sud-Oest
Visibilitat 10 km o més
sense núvols per sota de 1500 mi sense presència de cumulonimbus.
Probabilitat 30% :
Temporalment
l' 17 a les 02 UTC al 17 a les 08 UTC
Visibilitat: 3000 m
Cel ennuvolat a una alçada de 400 ft
boirina

TAF: LFBP 162300Z 1700/1724 24006KT CAVOK PROB30 TEMPO 1702/1708 3000 BR BKN004

Observacions i pronòstics meteorològics de més de 4000 aeroports (METAR i TAF).

Les estacions disponibles són els punts grocs i vermells al mapa.

Posi el ratolí al punt desitjat per veure el nom de l'estació.

Feu clic per veure les observacions i els pronòstics meteorològics.

Per canviar el mapa: feu clic els botons verds amb una creu de color negre per apropar; al botó verd amb un guió per allunyar la imatge; o en les fletxes verdes per a mapes adjacents.


METAR-TAF: